createdAt,value
2018-03-27T00:02:23.771Z,73.90
2018-03-27T00:04:51.412Z,74.30
2018-03-27T00:07:19.129Z,74.70
2018-03-27T00:09:47.473Z,75.80
2018-03-27T00:12:15.179Z,75.70
2018-03-27T00:14:42.773Z,76.50
2018-03-27T00:17:11.143Z,77.00
2018-03-27T00:19:39.539Z,78.10
2018-03-27T00:22:07.227Z,77.30
2018-03-27T00:24:49.699Z,77.60
2018-03-27T00:27:16.869Z,77.90
2018-03-27T00:29:56.229Z,78.30
2018-03-27T00:32:35.645Z,78.50
2018-03-27T00:35:15.287Z,78.80
2018-03-27T00:37:54.801Z,79.10
2018-03-27T00:40:34.543Z,79.30
2018-03-27T00:43:02.115Z,79.50
2018-03-27T00:45:29.869Z,79.50
2018-03-27T00:47:57.459Z,79.30
2018-03-27T00:50:25.067Z,78.90
2018-03-27T00:52:52.647Z,78.30
2018-03-27T00:55:20.288Z,78.10
2018-03-27T00:57:47.896Z,77.80
2018-03-27T01:00:15.474Z,77.60
2018-03-27T01:02:43.823Z,77.50
2018-03-27T01:05:11.403Z,77.50
2018-03-27T01:07:39.015Z,77.30
2018-03-27T01:10:06.781Z,78.10
2018-03-27T01:12:34.361Z,77.50
2018-03-27T01:15:01.937Z,77.50
2018-03-27T01:17:29.543Z,77.70
2018-03-27T01:19:57.960Z,77.90
2018-03-27T01:22:25.562Z,77.90
2018-03-27T01:24:53.142Z,78.20
2018-03-27T01:27:21.517Z,78.10
2018-03-27T01:29:49.878Z,78.00
2018-03-27T01:32:17.703Z,77.90
2018-03-27T01:34:45.278Z,77.90
2018-03-27T01:37:12.968Z,78.10
2018-03-27T01:39:40.624Z,78.10
2018-03-27T01:42:08.190Z,78.20
2018-03-27T01:44:35.780Z,78.00
2018-03-27T01:47:04.139Z,78.00
2018-03-27T01:49:32.504Z,78.00
2018-03-27T01:52:00.126Z,77.90
2018-03-27T01:54:27.790Z,78.10
2018-03-27T01:56:55.458Z,78.00
2018-03-27T01:59:23.118Z,78.00
2018-03-27T02:01:50.697Z,78.10
2018-03-27T02:04:18.380Z,78.00
2018-03-27T02:06:46.132Z,78.10
2018-03-27T02:09:13.748Z,78.20
2018-03-27T02:11:47.088Z,78.20
2018-03-27T02:14:20.282Z,78.40
2018-03-27T02:16:53.628Z,78.60
2018-03-27T02:19:26.790Z,78.60
2018-03-27T02:21:53.897Z,78.50
2018-03-27T02:24:23.525Z,78.60
2018-03-27T02:26:51.074Z,78.60
2018-03-27T02:29:19.480Z,78.90
2018-03-27T02:31:47.065Z,78.80
2018-03-27T02:34:14.645Z,78.90
2018-03-27T02:36:43.055Z,79.00
2018-03-27T02:39:10.692Z,78.90
2018-03-27T02:41:38.381Z,78.90
2018-03-27T02:44:05.940Z,79.00
2018-03-27T02:46:33.510Z,78.90
2018-03-27T02:49:01.855Z,79.00
2018-03-27T02:51:29.435Z,79.00
2018-03-27T02:53:57.015Z,79.00
2018-03-27T02:56:24.638Z,79.20
2018-03-27T02:58:52.274Z,79.20
2018-03-27T03:01:19.926Z,79.20
2018-03-27T03:03:48.277Z,79.30
2018-03-27T03:06:15.930Z,79.30
2018-03-27T03:08:43.516Z,79.40
2018-03-27T03:11:11.082Z,79.40
2018-03-27T03:13:39.630Z,79.70
2018-03-27T03:16:07.358Z,79.70
2018-03-27T03:18:35.018Z,79.70
2018-03-27T03:21:02.622Z,79.80
2018-03-27T03:23:30.967Z,80.40
2018-03-27T03:25:58.621Z,79.70
2018-03-27T03:28:26.219Z,79.80
2018-03-27T03:30:53.796Z,79.70
2018-03-27T03:33:22.144Z,79.80
2018-03-27T03:35:49.752Z,79.60
2018-03-27T03:38:17.352Z,79.80
2018-03-27T03:40:44.935Z,79.70
2018-03-27T03:43:12.532Z,79.60
2018-03-27T03:45:40.871Z,79.00
2018-03-27T03:48:08.486Z,78.90
2018-03-27T03:50:36.267Z,78.90
2018-03-27T03:53:03.861Z,78.70
2018-03-27T03:55:32.223Z,79.20
2018-03-27T03:58:00.709Z,78.90
2018-03-27T04:00:28.275Z,78.90
2018-03-27T04:02:55.834Z,79.10
2018-03-27T04:05:23.419Z,79.00
2018-03-27T04:07:51.073Z,78.90
2018-03-27T04:10:18.640Z,78.70
2018-03-27T04:12:46.217Z,78.50
2018-03-27T04:15:13.799Z,77.80
2018-03-27T04:17:41.363Z,77.10
2018-03-27T04:20:08.995Z,76.90
2018-03-27T04:22:36.753Z,77.00
2018-03-27T04:25:04.338Z,77.00
2018-03-27T04:27:31.911Z,77.10
2018-03-27T04:29:59.494Z,77.30
2018-03-27T04:32:27.837Z,77.70
2018-03-27T04:34:55.424Z,77.70
2018-03-27T04:37:23.132Z,77.90
2018-03-27T04:39:50.709Z,78.10
2018-03-27T04:42:18.629Z,78.20
2018-03-27T04:44:47.078Z,78.40
2018-03-27T04:47:14.634Z,78.40
2018-03-27T04:49:42.213Z,78.40
2018-03-27T04:52:09.783Z,78.40
2018-03-27T04:54:37.369Z,78.00
2018-03-27T04:57:04.969Z,77.50
2018-03-27T04:59:33.333Z,76.60
2018-03-27T05:02:00.990Z,76.60
2018-03-27T05:04:28.678Z,75.90
2018-03-27T05:06:56.623Z,75.60
2018-03-27T05:09:24.279Z,75.50
2018-03-27T05:11:51.839Z,75.20
2018-03-27T05:14:19.398Z,75.00
2018-03-27T05:16:47.329Z,74.90
2018-03-27T05:19:14.861Z,75.00
2018-03-27T05:21:42.696Z,75.20
2018-03-27T05:24:10.268Z,75.50
2018-03-27T05:26:37.862Z,75.90
2018-03-27T05:29:06.241Z,76.30
2018-03-27T05:31:34.594Z,76.50
2018-03-27T05:34:02.213Z,76.40
2018-03-27T05:36:29.896Z,76.70
2018-03-27T05:38:57.761Z,76.80
2018-03-27T05:41:25.342Z,76.80
2018-03-27T05:43:52.911Z,77.00
2018-03-27T05:46:20.553Z,77.00
2018-03-27T05:48:48.165Z,77.10
2018-03-27T05:51:15.791Z,77.40
2018-03-27T05:53:43.340Z,77.40
2018-03-27T05:56:10.934Z,77.60
2018-03-27T05:58:39.282Z,77.60
2018-03-27T06:01:07.200Z,77.60
2018-03-27T06:03:34.884Z,77.70
2018-03-27T06:06:02.602Z,77.70
2018-03-27T06:08:30.184Z,77.70
2018-03-27T06:10:58.602Z,77.60
2018-03-27T06:13:26.158Z,77.50
2018-03-27T06:15:53.792Z,77.50
2018-03-27T06:18:21.470Z,77.80
2018-03-27T06:20:49.136Z,77.60
2018-03-27T06:23:16.703Z,77.70
2018-03-27T06:25:44.295Z,77.90
2018-03-27T06:28:12.661Z,78.70
2018-03-27T06:30:40.270Z,78.50
2018-03-27T06:33:07.862Z,79.50
2018-03-27T06:35:35.466Z,78.90
2018-03-27T06:38:03.046Z,79.20
2018-03-27T06:40:30.712Z,79.30
2018-03-27T06:42:58.296Z,79.50
2018-03-27T06:45:26.651Z,80.20
2018-03-27T06:47:54.312Z,80.20
2018-03-27T06:50:21.884Z,80.20
2018-03-27T06:52:49.535Z,80.50
2018-03-27T06:55:17.181Z,80.70
2018-03-27T06:57:45.525Z,80.80
2018-03-27T07:00:13.171Z,81.00
2018-03-27T07:02:40.811Z,80.80
2018-03-27T07:05:09.219Z,80.80
2018-03-27T07:07:36.806Z,80.80
2018-03-27T07:10:05.179Z,80.70
2018-03-27T07:12:33.755Z,80.40
2018-03-27T07:15:01.401Z,80.50
2018-03-27T07:17:29.109Z,80.40
2018-03-27T07:19:57.496Z,80.60
2018-03-27T07:22:25.169Z,79.80
2018-03-27T07:24:52.762Z,80.40
2018-03-27T07:27:20.362Z,79.50
2018-03-27T07:29:47.926Z,79.40
2018-03-27T07:32:15.656Z,78.80
2018-03-27T07:34:43.340Z,78.10
2018-03-27T07:37:10.929Z,77.80
2018-03-27T07:39:39.360Z,75.10
2018-03-27T07:42:06.971Z,75.10
2018-03-27T07:44:34.536Z,74.30
2018-03-27T07:47:02.201Z,74.30
2018-03-27T07:49:29.974Z,72.50
2018-03-27T07:51:57.568Z,72.20
2018-03-27T07:54:25.185Z,71.60
2018-03-27T07:56:52.959Z,70.30
2018-03-27T07:59:20.574Z,69.00
2018-03-27T08:01:48.921Z,67.30
2018-03-27T08:04:16.507Z,67.20
2018-03-27T08:06:44.845Z,67.00
2018-03-27T08:09:12.431Z,67.00
2018-03-27T08:11:40.059Z,67.20
2018-03-27T08:14:07.644Z,68.60
2018-03-27T08:16:36.008Z,68.00
2018-03-27T08:19:04.559Z,68.80
2018-03-27T08:21:32.113Z,68.10
2018-03-27T08:23:59.826Z,68.10
2018-03-27T08:26:28.189Z,67.00
2018-03-27T08:28:55.769Z,67.00
2018-03-27T08:31:23.367Z,66.90
2018-03-27T08:33:51.891Z,67.00
2018-03-27T08:36:20.284Z,67.60
2018-03-27T08:38:48.507Z,67.50
2018-03-27T08:41:16.233Z,68.00
2018-03-27T08:43:44.645Z,68.50
2018-03-27T08:46:12.255Z,69.10
2018-03-27T08:48:39.892Z,68.50
2018-03-27T08:51:08.682Z,67.00
2018-03-27T08:53:37.090Z,64.90
2018-03-27T08:56:04.777Z,64.80
2018-03-27T08:58:32.371Z,63.10
2018-03-27T09:00:59.948Z,61.00
2018-03-27T09:03:27.566Z,59.70
2018-03-27T09:05:55.683Z,59.40
2018-03-27T09:08:23.267Z,58.40
2018-03-27T09:10:50.851Z,58.20
2018-03-27T09:13:18.436Z,58.10
2018-03-27T09:15:46.873Z,56.90
2018-03-27T09:18:15.285Z,56.40
2018-03-27T09:20:42.953Z,56.30
2018-03-27T09:23:10.647Z,55.50
2018-03-27T09:25:38.374Z,55.00
2018-03-27T09:28:05.936Z,55.10
2018-03-27T09:30:33.504Z,54.70
2018-03-27T09:33:01.085Z,55.10
2018-03-27T09:35:28.644Z,53.10
2018-03-27T09:37:56.997Z,51.70
2018-03-27T09:40:24.587Z,51.70
2018-03-27T09:42:52.174Z,50.20
2018-03-27T09:45:19.835Z,50.10
2018-03-27T09:47:47.565Z,50.40
2018-03-27T09:50:15.918Z,50.80
2018-03-27T09:52:43.642Z,50.80
2018-03-27T09:55:11.305Z,50.60
2018-03-27T09:57:39.055Z,50.40
2018-03-27T10:00:07.372Z,49.30
2018-03-27T10:02:34.996Z,49.20
2018-03-27T10:05:03.411Z,48.80
2018-03-27T10:07:30.984Z,48.80
2018-03-27T10:09:58.624Z,47.90
2018-03-27T10:12:26.382Z,47.40
2018-03-27T10:14:53.966Z,47.40
2018-03-27T10:17:21.544Z,48.00
2018-03-27T10:19:49.910Z,48.90
2018-03-27T10:22:18.391Z,50.00
2018-03-27T10:24:45.974Z,50.00
2018-03-27T10:27:14.332Z,50.60
2018-03-27T10:29:42.070Z,50.60
2018-03-27T10:32:09.646Z,50.90
2018-03-27T10:34:37.223Z,51.10
2018-03-27T10:37:04.803Z,51.00
2018-03-27T10:39:32.412Z,50.50
2018-03-27T10:42:00.020Z,50.60
2018-03-27T10:44:27.588Z,49.10
2018-03-27T10:46:55.160Z,49.10
2018-03-27T10:49:22.788Z,49.10
2018-03-27T10:51:50.450Z,47.30
2018-03-27T10:54:18.112Z,47.10
2018-03-27T10:56:45.818Z,47.40
2018-03-27T10:59:13.424Z,47.50
2018-03-27T11:01:41.038Z,48.00
2018-03-27T11:04:08.625Z,48.20
2018-03-27T11:06:36.192Z,47.60
2018-03-27T11:09:04.123Z,47.60
2018-03-27T11:11:31.694Z,47.60
2018-03-27T11:13:59.319Z,47.60
2018-03-27T11:16:26.868Z,46.10
2018-03-27T11:18:54.474Z,45.00
2018-03-27T11:21:22.881Z,44.40
2018-03-27T11:23:50.671Z,44.40
2018-03-27T11:26:18.224Z,44.30
2018-03-27T11:28:46.001Z,44.40
2018-03-27T11:31:13.565Z,44.00
2018-03-27T11:33:41.144Z,43.20
2018-03-27T11:36:09.514Z,43.60
2018-03-27T11:38:37.854Z,43.60
2018-03-27T11:41:05.444Z,43.60
2018-03-27T11:43:33.018Z,43.60
2018-03-27T11:46:00.658Z,43.10
2018-03-27T11:48:29.000Z,42.70
2018-03-27T11:50:56.637Z,42.70
2018-03-27T11:53:24.404Z,42.90
2018-03-27T11:55:52.163Z,43.60
2018-03-27T11:58:19.773Z,42.70
2018-03-27T12:00:47.362Z,42.30
2018-03-27T12:03:14.998Z,42.30
2018-03-27T12:05:42.672Z,42.30
2018-03-27T12:08:10.334Z,42.90
2018-03-27T12:10:37.973Z,43.40
2018-03-27T12:13:05.570Z,44.30
2018-03-27T12:15:33.205Z,45.40
2018-03-27T12:18:00.809Z,44.90
2018-03-27T12:20:28.429Z,44.20
2018-03-27T12:22:56.026Z,44.10
2018-03-27T12:25:23.618Z,44.30
2018-03-27T12:27:51.196Z,44.60
2018-03-27T12:30:18.791Z,44.50
2018-03-27T12:32:47.167Z,42.20
2018-03-27T12:35:15.521Z,42.10
2018-03-27T12:37:43.869Z,42.80
2018-03-27T12:40:11.701Z,42.20
2018-03-27T12:42:39.279Z,42.10
2018-03-27T12:45:07.735Z,41.20
2018-03-27T12:47:35.499Z,39.90
2018-03-27T12:50:03.125Z,39.90
2018-03-27T12:52:30.835Z,39.60
2018-03-27T12:54:59.254Z,39.10
2018-03-27T12:57:26.973Z,37.60
2018-03-27T12:59:54.727Z,35.90
2018-03-27T13:02:22.367Z,35.00
2018-03-27T13:04:49.999Z,35.00
2018-03-27T13:07:17.632Z,35.10
2018-03-27T13:09:45.967Z,35.30
2018-03-27T13:12:13.615Z,35.30
2018-03-27T13:14:41.209Z,34.60
2018-03-27T13:17:08.859Z,34.50
2018-03-27T13:19:37.265Z,33.80
2018-03-27T13:22:04.865Z,33.80
2018-03-27T13:24:32.485Z,33.90
2018-03-27T13:27:00.825Z,33.60
2018-03-27T13:29:28.472Z,33.60
2018-03-27T13:31:56.058Z,33.50
2018-03-27T13:34:23.645Z,33.80
2018-03-27T13:36:52.003Z,34.00
2018-03-27T13:39:19.626Z,34.00
2018-03-27T13:41:47.195Z,34.30
2018-03-27T13:44:15.295Z,34.90
2018-03-27T13:46:42.870Z,35.60
2018-03-27T13:49:10.475Z,35.90
2018-03-27T13:51:38.222Z,36.10
2018-03-27T13:54:05.828Z,36.80
2018-03-27T13:56:33.448Z,37.40
2018-03-27T13:59:01.054Z,38.60
2018-03-27T14:01:29.392Z,38.00
2018-03-27T14:03:57.023Z,38.00
2018-03-27T14:06:24.614Z,37.60
2018-03-27T14:08:53.193Z,37.00
2018-03-27T14:11:20.748Z,37.00
2018-03-27T14:13:48.503Z,36.30
2018-03-27T14:16:16.098Z,34.70
2018-03-27T14:18:43.684Z,33.70
2018-03-27T14:21:12.200Z,33.60
2018-03-27T14:23:39.825Z,33.50
2018-03-27T14:26:07.984Z,33.80
2018-03-27T14:28:35.637Z,33.80
2018-03-27T14:31:03.213Z,33.80
2018-03-27T14:33:30.790Z,33.60
2018-03-27T14:35:59.131Z,34.00
2018-03-27T14:38:26.790Z,34.00
2018-03-27T14:40:54.412Z,34.10
2018-03-27T14:43:22.736Z,34.40
2018-03-27T14:45:50.490Z,34.40
2018-03-27T14:48:18.100Z,34.10
2018-03-27T14:50:45.662Z,34.60
2018-03-27T14:53:13.231Z,34.50
2018-03-27T14:55:41.620Z,34.80
2018-03-27T14:58:09.191Z,35.30
2018-03-27T15:00:36.792Z,35.60
2018-03-27T15:03:04.401Z,36.20
2018-03-27T15:05:32.429Z,36.70
2018-03-27T15:08:00.805Z,36.70
2018-03-27T15:10:29.316Z,36.50
2018-03-27T15:12:56.922Z,36.50
2018-03-27T15:15:24.632Z,36.90
2018-03-27T15:17:53.110Z,37.50
2018-03-27T15:20:21.547Z,37.70
2018-03-27T15:22:49.112Z,37.60
2018-03-27T15:25:16.673Z,37.80
2018-03-27T15:27:44.240Z,37.60
2018-03-27T15:30:11.891Z,37.60
2018-03-27T15:32:39.467Z,37.50
2018-03-27T15:35:07.047Z,37.50
2018-03-27T15:37:34.612Z,37.30
2018-03-27T15:40:02.165Z,37.50
2018-03-27T15:42:29.819Z,37.50
2018-03-27T15:44:57.487Z,37.00
2018-03-27T15:47:25.070Z,36.70
2018-03-27T15:49:52.620Z,35.90
2018-03-27T15:52:20.202Z,35.10
2018-03-27T15:54:47.890Z,35.10
2018-03-27T15:57:15.512Z,35.30
2018-03-27T15:59:43.077Z,35.80
2018-03-27T16:02:10.746Z,36.40
2018-03-27T16:04:38.410Z,36.80
2018-03-27T16:07:06.037Z,37.70
2018-03-27T16:09:34.597Z,38.60
2018-03-27T16:12:02.499Z,38.60
2018-03-27T16:14:30.287Z,38.80
2018-03-27T16:16:57.871Z,39.10
2018-03-27T16:19:26.227Z,40.90
2018-03-27T16:21:53.813Z,40.90
2018-03-27T16:24:22.213Z,41.40
2018-03-27T16:26:50.553Z,41.60
2018-03-27T16:29:18.127Z,41.60
2018-03-27T16:31:45.735Z,41.90
2018-03-27T16:34:13.452Z,42.10
2018-03-27T16:36:40.989Z,42.00
2018-03-27T16:39:09.443Z,42.20
2018-03-27T16:41:37.029Z,42.10
2018-03-27T16:44:04.611Z,42.10
2018-03-27T16:46:32.291Z,42.00
2018-03-27T16:48:59.864Z,42.10
2018-03-27T16:51:27.677Z,42.20
2018-03-27T16:57:25.101Z,43.80
2018-03-27T16:59:52.669Z,43.30
2018-03-27T17:02:20.271Z,43.40
2018-03-27T17:04:48.588Z,44.00
2018-03-27T17:07:16.542Z,43.30
2018-03-27T17:09:44.301Z,43.80
2018-03-27T17:12:11.938Z,44.00
2018-03-27T17:14:39.521Z,44.20
2018-03-27T17:17:07.943Z,43.70
2018-03-27T17:19:35.545Z,43.70
2018-03-27T17:22:03.887Z,44.70
2018-03-27T17:24:31.522Z,44.60
2018-03-27T17:26:59.116Z,45.40
2018-03-27T17:29:26.797Z,46.10
2018-03-27T17:31:55.119Z,46.20
2018-03-27T17:34:22.773Z,46.20
2018-03-27T17:36:50.355Z,46.20
2018-03-27T17:39:18.718Z,47.90
2018-03-27T17:41:47.147Z,49.40
2018-03-27T17:44:14.714Z,48.60
2018-03-27T17:46:43.082Z,50.20
2018-03-27T17:49:11.439Z,50.90
2018-03-27T17:51:39.071Z,50.90
2018-03-27T17:54:06.733Z,52.00
2018-03-27T17:56:34.451Z,52.80
2018-03-27T17:59:02.366Z,53.60
2018-03-27T18:01:30.779Z,54.10
2018-03-27T18:03:58.468Z,54.70
2018-03-27T18:06:26.038Z,55.60
2018-03-27T18:08:53.613Z,55.80
2018-03-27T18:11:21.196Z,56.20
2018-03-27T18:13:49.540Z,56.80
2018-03-27T18:16:18.218Z,57.50
2018-03-27T18:18:46.657Z,57.80
2018-03-27T18:21:14.228Z,57.70
2018-03-27T18:23:42.005Z,57.60
2018-03-27T18:26:09.792Z,57.60
2018-03-27T18:28:38.212Z,58.10
2018-03-27T18:31:05.821Z,58.10
2018-03-27T18:33:34.157Z,58.50
2018-03-27T18:36:01.878Z,58.40
2018-03-27T18:38:30.299Z,57.90
2018-03-27T18:40:57.891Z,57.80
2018-03-27T18:43:25.456Z,57.50
2018-03-27T18:45:53.904Z,57.50
2018-03-27T18:48:23.632Z,57.20
2018-03-27T18:50:51.324Z,57.10
2018-03-27T18:53:18.973Z,56.50
2018-03-27T18:55:46.634Z,56.40
2018-03-27T18:58:14.198Z,56.80
2018-03-27T19:00:41.771Z,56.90
2018-03-27T19:03:09.517Z,56.50
2018-03-27T19:05:37.058Z,56.90
2018-03-27T19:08:04.627Z,57.40
2018-03-27T19:10:32.184Z,56.70
2018-03-27T19:12:59.826Z,56.40
2018-03-27T19:15:27.422Z,56.20
2018-03-27T19:17:55.015Z,56.30
2018-03-27T19:20:22.631Z,56.00
2018-03-27T19:22:50.213Z,55.60
2018-03-27T19:25:17.852Z,55.80
2018-03-27T19:27:46.118Z,56.50
2018-03-27T19:30:13.867Z,56.60
2018-03-27T19:32:41.452Z,56.30
2018-03-27T19:35:09.219Z,56.20
2018-03-27T19:37:36.829Z,56.10
2018-03-27T19:40:11.670Z,56.50
2018-03-27T19:42:39.326Z,56.80
2018-03-27T19:45:06.983Z,56.70
2018-03-27T19:47:34.538Z,56.00
2018-03-27T19:50:02.952Z,56.30
2018-03-27T19:52:31.229Z,56.20
2018-03-27T19:54:58.888Z,56.50
2018-03-27T19:57:27.206Z,56.80
2018-03-27T19:59:54.818Z,57.00
2018-03-27T20:02:22.411Z,57.40
2018-03-27T20:04:49.973Z,57.30
2018-03-27T20:07:17.771Z,57.30
2018-03-27T20:09:45.349Z,57.20
2018-03-27T20:12:12.987Z,57.20
2018-03-27T20:14:40.655Z,57.10
2018-03-27T20:17:08.238Z,57.10
2018-03-27T20:19:35.813Z,57.40
2018-03-27T20:22:03.441Z,57.40
2018-03-27T20:24:31.841Z,57.00
2018-03-27T20:26:59.492Z,57.00
2018-03-27T20:29:27.096Z,56.90
2018-03-27T20:31:56.194Z,56.60
2018-03-27T20:34:23.810Z,56.60
2018-03-27T20:36:52.156Z,56.30
2018-03-27T20:39:19.840Z,56.30
2018-03-27T20:41:48.175Z,56.10
2018-03-27T20:44:15.828Z,56.00
2018-03-27T20:46:43.501Z,55.80
2018-03-27T20:49:11.201Z,55.50
2018-03-27T20:51:38.934Z,55.20
2018-03-27T20:54:07.382Z,55.70
2018-03-27T20:56:35.146Z,55.50
2018-03-27T20:59:02.737Z,55.40
2018-03-27T21:01:30.310Z,55.20
2018-03-27T21:04:00.214Z,54.80
2018-03-27T21:06:28.025Z,54.70
2018-03-27T21:08:55.586Z,54.60
2018-03-27T21:11:23.229Z,54.50
2018-03-27T21:13:50.812Z,54.50
2018-03-27T21:16:18.413Z,54.70
2018-03-27T21:18:45.994Z,55.00
2018-03-27T21:21:13.619Z,55.50
2018-03-27T21:23:41.997Z,55.80
2018-03-27T21:26:09.605Z,55.80
2018-03-27T21:28:37.219Z,55.90
2018-03-27T21:31:04.805Z,56.20
2018-03-27T21:33:32.491Z,56.20
2018-03-27T21:36:00.131Z,56.50
2018-03-27T21:38:27.859Z,56.70
2018-03-27T21:40:55.449Z,56.70
2018-03-27T21:43:23.029Z,56.70
2018-03-27T21:45:50.737Z,56.70
2018-03-27T21:48:22.179Z,56.70
2018-03-27T21:50:50.665Z,57.10
2018-03-27T21:53:19.057Z,57.30
2018-03-27T21:55:46.651Z,57.20
2018-03-27T21:58:15.011Z,57.00
2018-03-27T22:00:42.601Z,56.90
2018-03-27T22:03:10.949Z,57.10
2018-03-27T22:05:38.520Z,57.00
2018-03-27T22:08:06.123Z,57.10
2018-03-27T22:10:33.693Z,57.10
2018-03-27T22:13:02.025Z,57.80
2018-03-27T22:15:29.670Z,57.30
2018-03-27T22:17:57.433Z,57.50
2018-03-27T22:20:25.084Z,57.60
2018-03-27T22:22:52.650Z,57.70
2018-03-27T22:25:20.305Z,58.00
2018-03-27T22:27:47.932Z,57.80
2018-03-27T22:30:16.274Z,57.30
2018-03-27T22:32:43.854Z,57.20
2018-03-27T22:35:11.440Z,57.30
2018-03-27T22:37:38.997Z,57.40
2018-03-27T22:40:06.521Z,57.60
2018-03-27T22:42:34.097Z,57.80
2018-03-27T22:45:01.667Z,58.10
2018-03-27T22:47:30.001Z,58.40
2018-03-27T22:49:57.571Z,58.40
2018-03-27T22:52:25.116Z,58.80
2018-03-27T22:54:52.956Z,58.90
2018-03-27T22:57:20.522Z,58.90
2018-03-27T22:59:48.168Z,58.90
2018-03-27T23:02:15.774Z,58.90
2018-03-27T23:04:43.348Z,59.10
2018-03-27T23:07:11.076Z,59.20
2018-03-27T23:09:38.650Z,59.20
2018-03-27T23:12:06.233Z,59.10
2018-03-27T23:14:33.950Z,59.20
2018-03-27T23:17:01.528Z,59.20
2018-03-27T23:19:29.128Z,59.30
2018-03-27T23:21:56.690Z,59.30
2018-03-27T23:24:24.260Z,59.10
2018-03-27T23:26:51.832Z,59.20
2018-03-27T23:29:20.324Z,59.60
2018-03-27T23:31:47.960Z,59.40
2018-03-27T23:34:15.528Z,59.40
2018-03-27T23:36:43.108Z,59.50
2018-03-27T23:39:11.460Z,59.40
2018-03-27T23:41:40.722Z,59.40
2018-03-27T23:44:08.296Z,59.30
2018-03-27T23:46:35.982Z,59.30
2018-03-27T23:49:03.560Z,59.30
2018-03-27T23:51:31.144Z,59.20
2018-03-27T23:53:58.726Z,59.30
2018-03-27T23:56:26.290Z,59.90
2018-03-27T23:58:53.856Z,60.10
